This is the latest recevied weather packets stored in our database for station/object TG8AKV-17. If no packets are shown the sender has not sent any weather packets the latest 10 day(s).
| Time | Temp. | Humidity | Pressure | Rain* | Wind** | Luminosity | Snow |
|---|---|---|---|---|---|---|---|
| 1777688683 | 15° C | 91% | 1015 hPa | 0 mm | - | - | - |
| 1777672468 | 17.78° C | 84% | 1013 hPa | 0 mm | - | - | - |
| 1777671267 | 17.78° C | 84% | 1013 hPa | 0 mm | - | - | - |
| 1777667663 | 17.78° C | 84% | 1013 hPa | 0 mm | - | - | - |
| 1777665261 | 22.22° C | 60% | 1014 hPa | 0 mm | - | - | - |
| 1777660456 | 22.22° C | 54% | 1014 hPa | 0 mm | - | - | - |
| 1777659255 | 22.78° C | 53% | 1014 hPa | 0 mm | - | - | - |
| 1777658054 | 22.22° C | 58% | 1014 hPa | 0 mm | - | - | - |
| 1777656853 | 21.11° C | 66% | 1014 hPa | 0 mm | - | - | - |
| 1777655652 | 21.11° C | 59% | 1015 hPa | 0 mm | - | - | - |
| 1777652649 | 19.44° C | 61% | 1015 hPa | 0 mm | - | - | - |
| 1777652048 | 19.44° C | 61% | 1015 hPa | 0 mm | - | - | - |
| 1777651448 | 18.89° C | 63% | 1015 hPa | 0 mm | - | - | - |
| 1777650247 | 17.78° C | 66% | 1015 hPa | 0 mm | - | - | - |
| 1777649646 | 17.78° C | 66% | 1015 hPa | 0 mm | - | - | - |
| 1777649045 | 17.78° C | 67% | 1015 hPa | 0 mm | - | - | - |
| 1777648445 | 17.78° C | 68% | 1015 hPa | 0 mm | - | - | - |
| 1777647844 | 17.78° C | 71% | 1015 hPa | 0 mm | - | - | - |
| 1777647244 | 14.44° C | 95% | 1015 hPa | 0 mm | - | - | - |
| 1777646043 | 13.33° C | 95% | 1016 hPa | 0 mm | - | - | - |
| 1777645442 | 13.33° C | 96% | 1016 hPa | 0 mm | - | - | - |
| 1777644842 | 12.78° C | 96% | 1016 hPa | 0 mm | - | - | - |
| 1777644241 | 11.11° C | 10% | - | 0 mm | - | - | - |
| 1777643641 | 11.11° C | 10% | - | 0 mm | - | - | - |
| 1777642434 | 11.67° C | 98% | 1016 hPa | 0 mm | - | - | - |
* Rain latest hour (hover to see other rain measurements)
** Current wind speed in m/s (hover to see current wind gust speed)